Time;durP1;ratioP1;P1;durP2;ratioP2;P2;SDS_P1;SDS_P2;PMS_P1;PMS_P2;Temp;Humidity;BMP_temperature;BMP_pressure;BME280_temperature;BME280_humidity;BME280_pressure;Samples;Min_cycle;Max_cycle;Signal;HPM_P1;HPM_P2
2023/10/09 00:04:36;;;;;;;0.15;0.15;;;2.20;99.90;;;;;;5117226;22;20369;-85
2023/10/09 00:17:17;;;;;;;0.63;0.30;;;2.20;99.90;;;;;;5041850;22;20086;-85
2023/10/09 00:19:51;;;;;;;0.75;0.75;;;2.20;99.90;;;;;;5031857;28;20390;-82
2023/10/09 00:22:26;;;;;;;0.40;0.40;;;2.30;99.90;;;;;;5032590;28;20028;-82
2023/10/09 00:25:10;;;;;;;0.40;0.40;;;2.30;99.90;;;;;;5032927;28;20486;-83
2023/10/09 00:27:51;;;;;;;1.75;0.60;;;2.30;99.90;;;;;;5026823;28;20112;-83
2023/10/09 00:30:18;;;;;;;0.50;0.50;;;2.40;99.90;;;;;;5033776;28;20025;-83
2023/10/09 00:33:01;;;;;;;0.73;0.73;;;2.40;99.90;;;;;;5016928;28;20541;-84
2023/10/09 00:35:39;;;;;;;0.70;0.70;;;2.40;99.90;;;;;;5029668;28;20021;-84
2023/10/09 00:38:33;;;;;;;1.77;0.77;;;2.40;99.90;;;;;;5033741;28;20021;-82
2023/10/09 00:41:19;;;;;;;;;;;2.40;99.90;;;;;;5032717;28;20042;-82
2023/10/09 00:43:42;;;;;;;0.83;0.63;;;2.40;99.90;;;;;;5034480;28;20286;-82
2023/10/09 00:48:48;;;;;;;0.70;0.70;;;2.40;99.90;;;;;;5031869;28;20022;-82
2023/10/09 00:51:21;;;;;;;0.98;0.80;;;2.40;99.90;;;;;;5032511;28;20044;-82
2023/10/09 00:53:58;;;;;;;1.38;1.00;;;2.40;99.90;;;;;;5014699;28;20490;-81
2023/10/09 00:58:56;;;;;;;1.10;0.90;;;2.40;99.90;;;;;;5034147;28;20025;-82
2023/10/09 01:01:27;;;;;;;1.05;0.85;;;2.40;99.90;;;;;;5050915;28;20017;-81
2023/10/09 01:03:54;;;;;;;1.20;0.70;;;2.40;99.90;;;;;;5050288;28;20005;-82
2023/10/09 01:06:27;;;;;;;1.17;0.90;;;2.40;99.90;;;;;;5030426;28;20025;-81
2023/10/09 01:09:06;;;;;;;1.15;0.90;;;2.40;99.90;;;;;;5052484;28;20028;-82
2023/10/09 01:11:34;;;;;;;1.73;1.15;;;2.40;99.90;;;;;;5052318;28;20398;-82
2023/10/09 01:14:22;;;;;;;2.72;1.35;;;2.40;99.90;;;;;;5052246;28;20107;-84
2023/10/09 01:16:47;;;;;;;1.75;1.40;;;2.30;99.90;;;;;;5051395;28;20064;-83
2023/10/09 01:19:19;;;;;;;1.40;0.93;;;2.30;99.90;;;;;;5052675;28;20021;-82
2023/10/09 01:21:46;;;;;;;1.65;1.50;;;2.30;99.90;;;;;;5052384;28;20100;-83
2023/10/09 01:24:11;;;;;;;2.05;1.60;;;2.30;99.90;;;;;;5052351;28;20021;-83
2023/10/09 01:26:40;;;;;;;1.40;1.25;;;2.40;99.90;;;;;;5052748;28;20103;-83
2023/10/09 01:29:15;;;;;;;1.52;1.38;;;2.40;99.90;;;;;;5052098;28;20104;-85
2023/10/09 01:32:06;;;;;;;2.58;1.73;;;2.40;99.90;;;;;;5051917;28;20151;-83
2023/10/09 01:34:41;;;;;;;1.50;1.40;;;2.40;99.90;;;;;;5051360;28;20033;-83
2023/10/09 01:37:28;;;;;;;2.60;1.50;;;2.40;99.90;;;;;;5034236;28;20027;-83
2023/10/09 01:39:59;;;;;;;;;;;2.40;99.90;;;;;;5052425;28;20367;-83
2023/10/09 01:44:54;;;;;;;1.30;1.20;;;2.50;99.90;;;;;;5052003;28;20053;-82
2023/10/09 01:47:21;;;;;;;2.30;1.35;;;2.50;99.90;;;;;;5052159;28;20114;-83
2023/10/09 01:49:52;;;;;;;1.42;1.27;;;2.50;99.90;;;;;;5051917;28;20040;-83
2023/10/09 01:52:20;;;;;;;2.42;1.65;;;2.40;99.90;;;;;;5051589;28;20025;-83
2023/10/09 01:54:50;;;;;;;2.05;1.30;;;2.40;99.90;;;;;;5045414;28;20338;-82
2023/10/09 01:57:22;;;;;;;1.13;1.05;;;2.50;99.90;;;;;;5049606;28;20545;-82
2023/10/09 01:59:49;;;;;;;2.22;1.75;;;2.50;99.90;;;;;;5052441;28;20025;-82
2023/10/09 02:02:34;;;;;;;1.27;1.17;;;2.60;99.90;;;;;;5055654;28;20497;-82
2023/10/09 02:07:51;;;;;;;1.80;1.30;;;2.60;99.90;;;;;;5055736;28;20021;-84
2023/10/09 02:10:47;;;;;;;2.70;1.38;;;2.60;99.90;;;;;;5055478;28;20386;-83
2023/10/09 02:13:09;;;;;;;1.33;1.17;;;2.60;99.90;;;;;;5055120;28;20047;-81
2023/10/09 02:21:39;;;;;;;1.10;1.00;;;2.60;99.90;;;;;;5055877;28;20028;-82
2023/10/09 02:23:51;;;;;;;1.27;0.98;;;2.60;99.90;;;;;;5049980;28;20482;-82
2023/10/09 02:29:20;;;;;;;1.05;0.95;;;2.60;99.90;;;;;;5055362;28;20104;-82
2023/10/09 02:31:47;;;;;;;1.67;1.20;;;2.70;99.90;;;;;;5054704;28;20029;-83
2023/10/09 02:34:15;;;;;;;1.40;1.10;;;2.70;99.90;;;;;;5056655;28;20055;-82
2023/10/09 02:36:42;;;;;;;0.68;0.68;;;2.70;99.90;;;;;;5057802;28;20009;-82
2023/10/09 02:39:22;;;;;;;1.40;1.30;;;2.70;99.90;;;;;;5037306;28;20466;-81
2023/10/09 02:41:55;;;;;;;1.17;0.80;;;2.70;99.90;;;;;;5055029;28;20100;-82
2023/10/09 02:44:25;;;;;;;1.30;0.73;;;2.80;99.90;;;;;;5037542;28;20394;-82
2023/10/09 02:46:51;;;;;;;1.20;1.00;;;2.80;99.90;;;;;;5053813;28;20401;-82
2023/10/09 02:49:17;;;;;;;1.05;0.93;;;2.80;99.90;;;;;;5053194;28;20021;-82
2023/10/09 02:51:43;;;;;;;1.85;0.95;;;2.80;99.90;;;;;;5063605;28;20033;-81
2023/10/09 02:57:07;;;;;;;1.08;0.98;;;2.80;99.90;;;;;;5041672;28;20198;-82
2023/10/09 02:59:34;;;;;;;1.88;0.70;;;2.80;99.90;;;;;;5054743;28;20017;-81
2023/10/09 03:02:00;;;;;;;1.90;1.25;;;2.90;99.90;;;;;;5054599;28;20067;-82
2023/10/09 03:04:30;;;;;;;1.65;1.33;;;2.90;99.90;;;;;;5050516;28;20021;-81
2023/10/09 03:07:00;;;;;;;1.45;1.00;;;2.90;99.90;;;;;;5052265;28;20103;-83
2023/10/09 03:09:27;;;;;;;1.23;1.02;;;2.90;99.90;;;;;;5054255;28;20013;-83
2023/10/09 03:12:03;;;;;;;1.10;0.63;;;2.90;99.90;;;;;;5055553;28;20087;-81
2023/10/09 03:14:31;;;;;;;0.73;0.68;;;2.90;99.90;;;;;;5055409;28;20051;-81
2023/10/09 03:16:58;;;;;;;2.00;0.65;;;2.90;99.90;;;;;;5054690;28;20041;-82
2023/10/09 03:19:28;;;;;;;1.50;0.70;;;2.90;99.90;;;;;;5054167;28;20005;-83
2023/10/09 03:21:57;;;;;;;0.73;0.70;;;2.90;99.90;;;;;;5054512;28;20475;-82
2023/10/09 03:24:23;;;;;;;1.77;0.63;;;3.00;99.90;;;;;;5048449;28;20065;-82
2023/10/09 03:26:49;;;;;;;0.50;0.50;;;3.00;99.90;;;;;;5055711;28;20029;-80
2023/10/09 03:29:19;;;;;;;0.45;0.45;;;3.00;99.90;;;;;;5054982;28;20029;-82
2023/10/09 03:31:46;;;;;;;1.00;0.90;;;3.00;99.90;;;;;;5055032;28;20360;-80
2023/10/09 03:34:12;;;;;;;0.63;0.60;;;3.00;99.90;;;;;;5055419;28;20029;-82
2023/10/09 03:36:38;;;;;;;0.70;0.70;;;3.10;99.90;;;;;;5036060;28;20425;-82
2023/10/09 03:39:20;;;;;;;0.40;0.40;;;3.10;99.90;;;;;;5036307;28;20031;-81
2023/10/09 03:41:47;;;;;;;2.40;0.82;;;3.10;99.90;;;;;;5053754;28;20025;-82
2023/10/09 03:44:18;;;;;;;1.40;0.73;;;3.10;99.90;;;;;;5054134;28;20024;-82
2023/10/09 03:46:45;;;;;;;1.55;0.80;;;3.10;99.90;;;;;;5053318;28;20096;-81
2023/10/09 03:49:13;;;;;;;0.75;0.68;;;3.10;99.90;;;;;;5052569;28;20108;-82
2023/10/09 03:51:39;;;;;;;;;;;3.10;99.90;;;;;;5054249;28;20059;-82
2023/10/09 03:54:13;;;;;;;0.75;0.70;;;3.10;99.90;;;;;;5053779;28;19908;-83
2023/10/09 03:56:38;;;;;;;1.55;0.60;;;3.10;99.90;;;;;;5053701;28;20024;-83
2023/10/09 03:59:04;;;;;;;1.15;0.60;;;3.20;99.90;;;;;;5054216;28;20031;-83
2023/10/09 04:01:37;;;;;;;0.52;0.50;;;3.20;99.90;;;;;;5054845;28;20034;-82
2023/10/09 04:04:07;;;;;;;0.85;0.40;;;3.20;99.90;;;;;;5035904;28;20047;-83
2023/10/09 04:06:33;;;;;;;0.95;0.70;;;3.20;99.90;;;;;;5054195;28;20075;-81
2023/10/09 04:15:01;;;;;;;2.38;0.70;;;2.90;99.90;;;;;;5053785;28;20017;-83
2023/10/09 04:17:33;;;;;;;1.02;0.80;;;2.80;99.90;;;;;;5053160;28;20049;-82
2023/10/09 04:22:50;;;;;;;1.17;0.70;;;2.80;99.90;;;;;;5053185;28;20036;-82
2023/10/09 04:25:25;;;;;;;0.70;0.70;;;2.80;99.90;;;;;;5053444;28;20017;-84
2023/10/09 04:27:53;;;;;;;0.68;0.60;;;2.80;99.90;;;;;;5047950;28;20025;-82
2023/10/09 04:30:19;;;;;;;0.70;0.70;;;2.90;99.90;;;;;;5053722;28;20079;-83
2023/10/09 04:32:45;;;;;;;0.95;0.95;;;2.90;99.90;;;;;;5052916;28;20087;-83
2023/10/09 04:35:23;;;;;;;0.50;0.50;;;2.80;99.90;;;;;;5046265;28;20414;-83
2023/10/09 04:38:04;;;;;;;1.52;0.98;;;2.80;99.90;;;;;;5038221;28;20036;-81
2023/10/09 04:40:51;;;;;;;2.38;0.90;;;2.80;99.90;;;;;;5064864;28;20005;-83
2023/10/09 04:43:20;;;;;;;1.55;0.98;;;2.80;99.90;;;;;;5064729;28;20017;-84
2023/10/09 04:46:07;;;;;;;0.60;0.60;;;2.80;99.90;;;;;;5054072;28;20109;-85
2023/10/09 04:48:37;;;;;;;1.00;0.95;;;2.80;99.90;;;;;;5053178;28;20262;-84
2023/10/09 04:51:34;;;;;;;2.90;1.15;;;2.80;99.90;;;;;;5044700;28;20088;-83
2023/10/09 04:54:13;;;;;;;1.48;0.85;;;2.90;99.90;;;;;;5049686;28;20104;-86
2023/10/09 04:56:51;;;;;;;0.77;0.70;;;2.90;99.90;;;;;;5055069;28;20028;-84
2023/10/09 04:59:24;;;;;;;1.52;0.55;;;2.90;99.90;;;;;;5053679;28;20027;-84
2023/10/09 05:01:57;;;;;;;0.80;0.52;;;2.80;99.90;;;;;;5036664;28;20494;-85
2023/10/09 05:04:29;;;;;;;0.65;0.52;;;2.80;99.90;;;;;;5036573;28;20028;-85
2023/10/09 05:06:55;;;;;;;0.70;0.60;;;2.80;99.90;;;;;;5053811;28;20515;-83
2023/10/09 05:09:22;;;;;;;0.77;0.60;;;2.80;99.90;;;;;;5053686;28;20076;-83
2023/10/09 05:14:17;;;;;;;0.77;0.77;;;2.80;99.90;;;;;;5052909;28;20158;-82
2023/10/09 05:16:55;;;;;;;0.50;0.50;;;2.80;99.90;;;;;;5052640;28;20052;-84
2023/10/09 05:19:42;;;;;;;0.60;0.60;;;2.90;99.90;;;;;;5034116;28;20021;-84
2023/10/09 05:22:29;;;;;;;0.82;0.60;;;2.90;99.90;;;;;;5052366;28;20059;-84
2023/10/09 05:25:00;;;;;;;;;;;2.90;99.90;;;;;;5035004;28;20052;-83
2023/10/09 05:30:26;;;;;;;0.57;0.55;;;2.90;99.90;;;;;;5047084;28;20059;-85
2023/10/09 05:33:27;;;;;;;0.77;0.77;;;2.90;99.90;;;;;;5054626;28;20448;-86
2023/10/09 05:36:05;;;;;;;0.65;0.65;;;2.90;99.90;;;;;;5052090;28;20024;-85
2023/10/09 05:38:35;;;;;;;2.17;0.90;;;2.90;99.90;;;;;;5052664;28;20092;-85
2023/10/09 05:41:31;;;;;;;0.80;0.75;;;2.90;99.90;;;;;;5056010;28;20421;-85
2023/10/09 05:46:37;;;;;;;1.35;0.80;;;3.00;99.90;;;;;;5061402;28;20036;-84
2023/10/09 05:49:19;;;;;;;0.65;0.65;;;3.00;99.90;;;;;;5054580;28;20039;-84
2023/10/09 05:51:53;;;;;;;2.60;1.00;;;3.10;99.90;;;;;;5054006;28;20033;-84
2023/10/09 05:59:45;;;;;;;1.38;1.00;;;3.20;99.90;;;;;;5051691;28;20441;-83
2023/10/09 06:03:25;;;;;;;1.98;1.10;;;3.20;99.90;;;;;;5051856;28;20096;-85
2023/10/09 06:06:01;;;;;;;1.13;0.80;;;3.20;99.90;;;;;;5041661;28;20044;-82
2023/10/09 06:14:13;;;;;;;1.23;0.90;;;3.40;99.90;;;;;;5037112;28;20067;-83
2023/10/09 06:16:41;;;;;;;4.00;1.13;;;3.40;99.90;;;;;;5052028;28;20041;-82
2023/10/09 06:19:12;;;;;;;1.17;0.98;;;3.50;99.90;;;;;;5051845;28;20025;-85
2023/10/09 06:24:33;;;;;;;1.23;0.75;;;3.50;99.90;;;;;;5052295;28;20063;-83
2023/10/09 06:35:14;;;;;;;1.30;0.98;;;3.50;99.90;;;;;;5053320;28;20029;-85
2023/10/09 06:38:21;;;;;;;2.85;1.63;;;3.50;99.90;;;;;;5058031;28;20021;-85
2023/10/09 06:43:16;;;;;;;2.50;1.25;;;3.90;99.90;;;;;;5060484;28;20079;-84
2023/10/09 06:45:43;;;;;;;3.05;1.25;;;4.00;99.90;;;;;;5061178;28;20044;-84
2023/10/09 06:50:55;;;;;;;0.88;0.80;;;4.20;99.90;;;;;;5055741;28;20575;-85
2023/10/09 06:53:25;;;;;;;1.25;0.90;;;4.10;99.90;;;;;;5049893;28;20032;-83
2023/10/09 06:55:51;;;;;;;1.27;0.90;;;4.20;99.90;;;;;;5055621;28;20446;-85
2023/10/09 06:58:28;;;;;;;3.35;1.27;;;4.20;99.90;;;;;;5037355;28;20021;-85
2023/10/09 07:03:29;;;;;;;3.40;1.13;;;4.30;99.90;;;;;;5054122;28;20036;-86
2023/10/09 07:06:23;;;;;;;2.00;1.38;;;4.40;99.90;;;;;;5054636;28;20028;-85
2023/10/09 07:09:15;;;;;;;2.65;1.40;;;4.50;99.90;;;;;;5055174;28;20076;-87
2023/10/09 07:17:15;;;;;;;3.08;1.75;;;4.50;99.90;;;;;;5058995;28;20068;-84
2023/10/09 07:25:15;;;;;;;1.17;1.00;;;4.50;99.90;;;;;;5057908;28;20402;-88
2023/10/09 07:27:48;;;;;;;2.10;1.20;;;4.50;99.90;;;;;;5058173;28;20486;-88
2023/10/09 07:38:08;;;;;;;2.28;1.13;;;4.40;99.90;;;;;;5054797;28;20021;-81
2023/10/09 07:43:28;;;;;;;1.88;1.50;;;4.40;99.90;;;;;;5054814;28;20056;-89
2023/10/09 07:48:36;;;;;;;1.48;0.88;;;4.60;99.90;;;;;;5053595;28;20040;-83
2023/10/09 07:51:05;;;;;;;1.75;1.40;;;4.50;99.90;;;;;;5045950;28;20021;-84
2023/10/09 07:53:43;;;;;;;4.68;0.85;;;4.60;99.90;;;;;;5038102;28;20117;-84
2023/10/09 07:56:12;;;;;;;1.10;0.98;;;4.50;99.90;;;;;;5037050;28;20052;-85
2023/10/09 07:58:48;;;;;;;1.27;0.85;;;4.40;99.90;;;;;;5035170;28;20040;-83
2023/10/09 08:01:15;;;;;;;2.33;0.93;;;4.40;99.90;;;;;;5044827;28;20017;-87
2023/10/09 08:03:45;;;;;;;1.85;1.30;;;4.40;99.90;;;;;;5035897;28;20029;-85
2023/10/09 08:14:41;;;;;;;2.20;0.90;;;4.50;99.90;;;;;;5052767;28;20033;-82
2023/10/09 08:17:11;;;;;;;1.85;0.90;;;4.60;99.90;;;;;;5055346;28;20405;-85
2023/10/09 08:19:53;;;;;;;1.30;0.93;;;4.50;99.90;;;;;;5065342;28;20044;-83
2023/10/09 08:24:55;;;;;;;1.80;0.80;;;4.60;99.90;;;;;;5046328;28;20520;-85
2023/10/09 08:33:40;;;;;;;1.80;1.02;;;4.70;99.90;;;;;;5037742;28;20474;-86
2023/10/09 08:35:47;;;;;;;1.77;1.05;;;4.70;99.70;;;;;;5042436;28;20087;-83
2023/10/09 08:38:14;;;;;;;1.38;0.68;;;4.70;99.80;;;;;;5035258;28;20025;-85
2023/10/09 08:40:45;;;;;;;1.30;0.60;;;4.70;99.90;;;;;;5055254;28;20020;-87
2023/10/09 08:43:22;;;;;;;0.80;0.60;;;4.80;99.60;;;;;;5040172;28;20054;-88
2023/10/09 08:46:00;;;;;;;1.67;0.80;;;4.80;99.60;;;;;;5035388;28;20438;-84
2023/10/09 08:48:27;;;;;;;1.27;0.60;;;4.80;99.50;;;;;;5035451;28;20447;-84
2023/10/09 08:50:54;;;;;;;0.63;0.57;;;4.90;99.40;;;;;;5055813;28;20036;-86
2023/10/09 08:53:23;;;;;;;2.53;0.88;;;4.90;99.00;;;;;;5068992;28;20066;-84
2023/10/09 08:55:51;;;;;;;1.48;1.00;;;4.90;98.80;;;;;;5052586;28;20079;-86
2023/10/09 08:58:24;;;;;;;2.25;1.73;;;5.00;99.10;;;;;;5053995;28;20031;-85
2023/10/09 09:00:51;;;;;;;1.10;0.90;;;5.10;99.10;;;;;;5035601;28;20025;-86
2023/10/09 09:03:22;;;;;;;2.83;1.23;;;5.30;98.90;;;;;;5032266;28;20029;-84
2023/10/09 09:05:57;;;;;;;2.55;1.00;;;5.30;98.60;;;;;;5031694;28;20024;-83
2023/10/09 09:08:25;;;;;;;1.48;1.10;;;5.30;98.10;;;;;;5052397;28;20029;-83
2023/10/09 09:11:23;;;;;;;2.17;0.90;;;5.30;98.20;;;;;;5051607;28;20032;-82
2023/10/09 09:14:04;;;;;;;1.38;0.98;;;5.40;98.10;;;;;;5058831;28;20040;-86
2023/10/09 09:16:31;;;;;;;1.17;1.00;;;5.50;97.50;;;;;;5047617;28;20343;-81
2023/10/09 09:21:44;;;;;;;0.57;0.55;;;5.40;97.70;;;;;;5051670;28;20104;-84
2023/10/09 09:29:36;;;;;;;0.82;0.47;;;5.40;97.60;;;;;;5052570;28;20036;-85
2023/10/09 09:32:15;;;;;;;0.98;0.50;;;5.50;97.20;;;;;;5034405;28;20375;-83
2023/10/09 09:34:56;;;;;;;1.58;0.80;;;5.50;96.80;;;;;;5054200;28;20017;-82
2023/10/09 09:37:28;;;;;;;1.63;1.00;;;5.50;97.00;;;;;;5034649;28;20025;-85
2023/10/09 09:40:53;;;;;;;3.47;0.75;;;5.50;97.10;;;;;;5055051;28;20017;-85
2023/10/09 09:42:51;;;;;;;2.00;0.98;;;5.50;97.20;;;;;;5042973;28;20039;-85
2023/10/09 09:45:23;;;;;;;0.57;0.52;;;5.50;97.40;;;;;;5036000;28;20027;-82
2023/10/09 09:47:54;;;;;;;1.33;0.73;;;5.50;97.00;;;;;;5034531;28;20461;-82
2023/10/09 09:50:28;;;;;;;1.33;0.60;;;5.40;97.30;;;;;;5034705;28;20035;-87
2023/10/09 09:52:55;;;;;;;1.60;0.80;;;5.40;97.60;;;;;;5052682;28;20037;-84
2023/10/09 09:55:32;;;;;;;1.02;0.63;;;5.40;97.60;;;;;;5053726;28;20067;-86
2023/10/09 09:57:58;;;;;;;0.52;0.52;;;5.40;97.60;;;;;;5045400;28;20037;-84
2023/10/09 10:03:01;;;;;;;0.50;0.50;;;5.40;97.70;;;;;;5053451;28;20021;-85
2023/10/09 10:05:29;;;;;;;2.15;0.80;;;5.30;97.60;;;;;;5042480;28;20060;-85
2023/10/09 10:07:59;;;;;;;1.40;0.80;;;5.20;98.00;;;;;;5067221;28;20481;-87
2023/10/09 10:10:49;;;;;;;3.60;0.63;;;5.30;97.80;;;;;;5053668;28;20052;-86
2023/10/09 10:13:21;;;;;;;1.50;0.73;;;5.40;97.60;;;;;;5034567;28;20087;-88
2023/10/09 10:16:02;;;;;;;1.63;0.75;;;5.30;97.60;;;;;;5047914;28;20037;-84
2023/10/09 10:19:06;;;;;;;0.80;0.75;;;5.40;98.10;;;;;;5051755;28;20033;-90
2023/10/09 10:21:48;;;;;;;0.63;0.47;;;5.40;98.10;;;;;;5035621;28;20029;-83
2023/10/09 10:24:32;;;;;;;0.70;0.40;;;5.40;97.80;;;;;;5051269;28;20053;-86
2023/10/09 10:27:18;;;;;;;0.68;0.50;;;5.30;98.10;;;;;;5063168;28;20581;-83
2023/10/09 10:29:50;;;;;;;1.00;0.63;;;5.20;98.40;;;;;;5047279;28;20025;-86
2023/10/09 10:32:23;;;;;;;1.08;0.60;;;5.10;98.30;;;;;;5054703;28;20107;-85
2023/10/09 10:34:58;;;;;;;1.52;0.85;;;5.10;98.40;;;;;;5037410;28;20020;-85
2023/10/09 10:37:43;;;;;;;1.02;0.85;;;5.00;98.60;;;;;;5054811;28;20025;-86
2023/10/09 10:40:37;;;;;;;0.85;0.65;;;5.00;98.70;;;;;;5047777;28;20051;-84
2023/10/09 10:43:13;;;;;;;0.50;0.45;;;5.10;98.70;;;;;;5037036;28;20036;-86
2023/10/09 10:45:45;;;;;;;0.82;0.63;;;5.10;98.40;;;;;;5054951;28;20021;-85
2023/10/09 10:48:36;;;;;;;1.65;0.80;;;5.20;98.50;;;;;;5054527;28;20024;-85
2023/10/09 10:51:03;;;;;;;2.78;1.15;;;5.20;97.90;;;;;;5038851;28;20696;-88
2023/10/09 10:53:47;;;;;;;0.85;0.70;;;5.20;97.80;;;;;;5055367;28;20053;-87
2023/10/09 10:59:22;;;;;;;3.28;0.70;;;5.20;98.00;;;;;;5054532;28;20017;-83
2023/10/09 11:01:58;;;;;;;1.17;0.63;;;5.10;98.20;;;;;;5051230;28;20045;-84
2023/10/09 11:07:24;;;;;;;1.02;0.70;;;5.10;98.50;;;;;;5060750;28;20025;-84
2023/10/09 11:12:38;;;;;;;1.38;0.85;;;5.20;98.10;;;;;;5054749;28;20112;-84
2023/10/09 11:15:37;;;;;;;1.20;0.70;;;5.30;98.00;;;;;;5055028;28;20025;-83
2023/10/09 11:18:04;;;;;;;1.25;0.55;;;5.30;97.90;;;;;;5055578;28;20444;-81
2023/10/09 11:20:33;;;;;;;0.65;0.50;;;5.30;97.70;;;;;;5036157;28;20394;-82
2023/10/09 11:25:41;;;;;;;5.10;1.02;;;5.50;97.20;;;;;;5055001;28;20108;-83
2023/10/09 11:28:29;;;;;;;;;;;5.50;97.10;;;;;;5023270;28;20048;-82
2023/10/09 11:31:18;;;;;;;1.02;0.73;;;5.50;96.80;;;;;;5036298;28;19908;-83
2023/10/09 11:33:54;;;;;;;1.80;1.02;;;5.50;96.80;;;;;;5053012;28;20040;-85
2023/10/09 11:36:34;;;;;;;0.75;0.70;;;5.60;96.60;;;;;;5054242;28;20021;-83
2023/10/09 11:39:13;;;;;;;1.17;0.82;;;5.60;96.30;;;;;;5055226;28;20025;-83
2023/10/09 11:41:44;;;;;;;2.38;1.20;;;5.70;96.40;;;;;;5036485;28;20032;-83
2023/10/09 11:44:18;;;;;;;4.68;0.73;;;5.60;96.50;;;;;;5054741;28;20021;-84
2023/10/09 11:50:13;;;;;;;0.83;0.70;;;5.50;97.40;;;;;;5054212;28;20095;-83
2023/10/09 11:55:40;;;;;;;1.27;0.77;;;5.10;98.00;;;;;;5068265;28;20048;-86
2023/10/09 11:58:07;;;;;;;0.73;0.50;;;5.10;98.00;;;;;;5036764;28;20021;-84
2023/10/09 12:00:44;;;;;;;1.45;0.75;;;5.10;98.00;;;;;;5033639;28;20122;-85
2023/10/09 12:03:13;;;;;;;1.48;0.82;;;5.10;98.20;;;;;;5038166;28;20395;-83
2023/10/09 12:05:43;;;;;;;1.27;0.90;;;5.10;98.30;;;;;;5032222;28;20037;-85
2023/10/09 12:08:15;;;;;;;1.25;0.75;;;5.10;98.30;;;;;;5032063;28;20021;-84
2023/10/09 12:10:42;;;;;;;1.38;0.80;;;5.10;98.30;;;;;;5014452;28;20061;-82
2023/10/09 12:13:07;;;;;;;1.27;0.70;;;5.20;98.20;;;;;;5014379;28;20049;-83
2023/10/09 12:15:37;;;;;;;1.90;0.60;;;5.20;98.20;;;;;;5033296;28;20274;-83
2023/10/09 12:18:14;;;;;;;2.13;0.80;;;5.30;98.20;;;;;;5030605;28;20049;-83
2023/10/09 12:20:41;;;;;;;1.02;0.85;;;5.30;97.90;;;;;;5030784;28;20076;-84
2023/10/09 12:23:07;;;;;;;1.20;0.90;;;5.40;97.80;;;;;;5013973;28;20550;-82
2023/10/09 12:25:35;;;;;;;0.95;0.40;;;5.30;98.10;;;;;;5030718;28;20117;-83
2023/10/09 12:28:04;;;;;;;;;;;5.10;98.40;;;;;;5014934;28;20431;-83
2023/10/09 12:30:30;;;;;;;2.13;0.95;;;4.90;98.70;;;;;;5013869;28;19949;-81
2023/10/09 12:33:00;;;;;;;2.40;0.70;;;4.80;99.30;;;;;;5030083;28;20042;-83
2023/10/09 12:35:26;;;;;;;0.75;0.68;;;4.80;99.50;;;;;;5030316;28;20025;-82
2023/10/09 12:37:56;;;;;;;1.38;0.88;;;4.80;99.40;;;;;;5040319;28;20044;-82
2023/10/09 12:40:29;;;;;;;1.45;0.65;;;4.90;99.20;;;;;;5040380;28;20017;-84
2023/10/09 12:42:58;;;;;;;3.13;0.85;;;4.90;99.30;;;;;;5052444;28;20546;-85
2023/10/09 12:45:32;;;;;;;3.72;1.05;;;5.00;99.00;;;;;;5035066;28;20044;-85
2023/10/09 12:48:09;;;;;;;2.30;0.95;;;5.00;98.40;;;;;;5033430;28;20401;-86
2023/10/09 12:50:41;;;;;;;1.70;0.85;;;5.10;98.30;;;;;;5052336;28;20009;-83
2023/10/09 12:53:08;;;;;;;2.33;0.85;;;5.20;98.00;;;;;;5034234;28;20047;-82
2023/10/09 12:55:43;;;;;;;1.27;0.82;;;5.20;98.00;;;;;;5034285;28;20048;-84
2023/10/09 12:58:15;;;;;;;2.30;0.73;;;5.10;98.20;;;;;;5051647;28;20526;-83
2023/10/09 13:00:48;;;;;;;2.03;1.00;;;5.00;98.60;;;;;;5052417;28;20092;-89
2023/10/09 13:03:19;;;;;;;2.20;0.75;;;5.00;99.00;;;;;;5034143;28;20532;-84
2023/10/09 13:05:54;;;;;;;1.73;0.70;;;4.90;99.10;;;;;;5030928;28;20031;-84
2023/10/09 13:08:34;;;;;;;1.52;0.90;;;5.00;99.00;;;;;;5034029;28;20051;-84
2023/10/09 13:11:11;;;;;;;2.28;0.85;;;5.00;98.90;;;;;;5052405;28;20096;-81
2023/10/09 13:13:46;;;;;;;0.80;0.57;;;5.10;98.90;;;;;;5051897;28;20029;-83
2023/10/09 13:16:24;;;;;;;2.95;1.20;;;5.10;98.70;;;;;;5051871;28;20449;-85
2023/10/09 13:18:51;;;;;;;1.23;0.73;;;5.10;98.70;;;;;;5034263;28;20496;-83
2023/10/09 13:21:31;;;;;;;0.93;0.80;;;5.10;98.70;;;;;;5034880;28;20492;-85
2023/10/09 13:24:00;;;;;;;1.25;1.00;;;5.10;99.00;;;;;;5054393;28;20029;-90
2023/10/09 13:26:30;;;;;;;2.22;1.25;;;5.10;99.20;;;;;;5055093;28;20021;-90
2023/10/09 13:28:57;;;;;;;5.40;1.88;;;5.10;99.40;;;;;;5054220;28;20029;-89
2023/10/09 13:31:25;;;;;;;1.65;1.08;;;5.10;99.70;;;;;;5059284;28;20025;-88
2023/10/09 13:33:55;;;;;;;3.25;1.50;;;5.10;99.90;;;;;;5055766;28;20017;-86
2023/10/09 13:36:31;;;;;;;3.28;2.25;;;5.10;99.90;;;;;;5062842;28;20482;-84
2023/10/09 13:39:19;;;;;;;2.65;1.40;;;5.10;99.90;;;;;;5064707;28;20029;-86
2023/10/09 13:41:44;;;;;;;2.78;1.42;;;5.10;99.90;;;;;;5052981;28;20037;-85
2023/10/09 13:44:10;;;;;;;2.67;1.70;;;5.10;99.90;;;;;;5044897;28;20025;-85
2023/10/09 13:46:45;;;;;;;2.50;1.30;;;5.00;99.90;;;;;;5066177;28;20135;-85
2023/10/09 13:49:14;;;;;;;2.42;1.45;;;5.00;99.90;;;;;;5040725;28;20063;-84
2023/10/09 13:51:46;;;;;;;1.35;0.85;;;4.90;99.90;;;;;;5057006;28;20508;-85
2023/10/09 13:57:04;;;;;;;1.55;1.20;;;4.80;99.90;;;;;;5057469;28;20013;-83
2023/10/09 13:59:31;;;;;;;2.38;1.25;;;4.80;99.90;;;;;;5049440;28;20155;-86
2023/10/09 14:01:59;;;;;;;1.10;0.87;;;4.80;99.90;;;;;;5048757;28;20021;-84
2023/10/09 14:04:26;;;;;;;;;;;4.80;99.90;;;;;;5060710;28;20329;-86
2023/10/09 14:06:59;;;;;;;3.55;1.70;;;4.80;99.90;;;;;;5059996;28;20419;-87
2023/10/09 14:09:37;;;;;;;1.55;1.13;;;4.80;99.90;;;;;;5055372;28;20021;-85
2023/10/09 14:12:11;;;;;;;1.88;1.17;;;4.80;99.90;;;;;;5037689;28;20047;-86
2023/10/09 14:14:53;;;;;;;2.72;1.33;;;4.80;99.90;;;;;;5055375;28;20025;-87
2023/10/09 14:17:25;;;;;;;2.85;1.13;;;4.70;99.90;;;;;;5055955;28;20041;-85
2023/10/09 14:20:25;;;;;;;2.10;0.93;;;4.70;99.90;;;;;;5042490;28;20439;-86
2023/10/09 14:22:52;;;;;;;2.50;0.90;;;4.60;99.90;;;;;;5055638;28;20028;-89
2023/10/09 14:25:20;;;;;;;0.93;0.82;;;4.60;99.90;;;;;;5048056;28;20021;-91
2023/10/09 14:27:48;;;;;;;1.80;0.98;;;4.50;99.90;;;;;;5057803;28;20051;-88
2023/10/09 14:30:22;;;;;;;1.88;0.98;;;4.40;99.90;;;;;;5056654;28;20021;-88
2023/10/09 14:32:55;;;;;;;1.80;1.02;;;4.40;99.90;;;;;;5055891;28;20122;-86
2023/10/09 14:35:21;;;;;;;1.48;1.00;;;4.40;99.90;;;;;;5037001;28;20397;-84
2023/10/09 14:37:47;;;;;;;2.03;1.33;;;4.30;99.90;;;;;;5055148;28;20021;-86
2023/10/09 14:40:13;;;;;;;2.03;1.20;;;4.30;99.90;;;;;;5037198;28;20029;-85
2023/10/09 14:42:45;;;;;;;1.77;1.45;;;4.30;99.90;;;;;;5038293;28;20047;-84
2023/10/09 14:45:15;;;;;;;2.47;1.27;;;4.40;99.90;;;;;;5046426;28;20067;-83
2023/10/09 14:47:46;;;;;;;3.17;1.33;;;4.40;99.90;;;;;;5055979;28;20021;-84
2023/10/09 14:50:13;;;;;;;1.33;1.00;;;4.40;99.90;;;;;;5055946;28;20021;-87
2023/10/09 14:52:40;;;;;;;2.15;0.98;;;4.40;99.90;;;;;;5037902;28;20052;-86
2023/10/09 14:55:07;;;;;;;1.80;1.17;;;4.40;99.90;;;;;;5056748;28;20060;-87
2023/10/09 14:57:33;;;;;;;3.42;1.48;;;4.40;99.90;;;;;;5041104;28;20071;-86
2023/10/09 15:00:01;;;;;;;3.35;1.45;;;4.40;99.90;;;;;;5057412;28;20031;-86
2023/10/09 15:02:27;;;;;;;1.27;1.10;;;4.40;99.90;;;;;;5043494;28;20120;-87
2023/10/09 15:04:53;;;;;;;1.50;1.38;;;4.50;99.90;;;;;;5038010;28;20052;-87
2023/10/09 15:07:20;;;;;;;2.53;1.50;;;4.50;99.90;;;;;;5035538;28;20075;-87
2023/10/09 15:09:46;;;;;;;1.98;1.27;;;4.50;99.90;;;;;;5039560;28;20021;-86
2023/10/09 15:12:12;;;;;;;1.80;1.23;;;4.50;99.90;;;;;;5055566;28;20362;-88
2023/10/09 15:14:39;;;;;;;3.55;1.40;;;4.50;99.90;;;;;;5059619;28;20039;-85
2023/10/09 15:17:07;;;;;;;3.20;1.85;;;4.50;99.90;;;;;;5054863;28;20497;-85
2023/10/09 15:19:34;;;;;;;2.05;1.52;;;4.50;99.90;;;;;;5054702;28;20024;-87
2023/10/09 15:22:00;;;;;;;7.80;2.10;;;4.60;99.90;;;;;;5038604;28;20363;-88
2023/10/09 15:24:27;;;;;;;4.28;2.20;;;4.60;99.90;;;;;;5037274;28;20470;-88
2023/10/09 15:26:57;;;;;;;2.83;2.08;;;4.60;99.90;;;;;;5054829;28;20025;-85
2023/10/09 15:29:32;;;;;;;8.52;2.00;;;4.60;99.90;;;;;;5055350;28;20060;-84
2023/10/09 15:32:14;;;;;;;3.72;1.70;;;4.60;99.90;;;;;;5066789;28;20041;-86
2023/10/09 15:34:41;;;;;;;4.97;2.20;;;4.60;99.90;;;;;;5063527;28;20362;-86
2023/10/09 15:37:07;;;;;;;3.25;2.33;;;4.50;99.90;;;;;;5054295;28;20025;-85
2023/10/09 15:39:37;;;;;;;1.65;1.27;;;4.50;99.90;;;;;;5053494;28;20033;-85
2023/10/09 15:42:06;;;;;;;1.35;1.08;;;4.40;99.90;;;;;;5036183;28;20035;-86
2023/10/09 15:44:36;;;;;;;2.60;1.40;;;4.30;99.90;;;;;;5035865;28;20028;-85
2023/10/09 15:47:03;;;;;;;2.10;1.40;;;4.30;99.90;;;;;;5045358;28;20127;-84
2023/10/09 15:49:33;;;;;;;4.72;1.58;;;4.10;99.90;;;;;;5054003;28;20055;-84
2023/10/09 15:52:03;;;;;;;2.15;1.40;;;4.10;99.90;;;;;;5053277;28;20033;-83
2023/10/09 15:54:29;;;;;;;1.85;1.52;;;4.00;99.90;;;;;;5053934;28;20367;-86
2023/10/09 15:56:56;;;;;;;2.45;1.63;;;4.00;99.90;;;;;;5053244;28;20009;-85
2023/10/09 15:59:24;;;;;;;1.90;1.45;;;3.90;99.90;;;;;;5053513;28;20071;-84
2023/10/09 16:01:51;;;;;;;2.10;1.48;;;3.80;99.90;;;;;;5046791;28;20064;-84